Downstream station:
SHEF ID: JOPM7 Shoal Creek above Joplin, MO
STATION TYPE:
Regulating: Stage = 10.00, Flow = 6333
PRECIP STAGE RIV-FLOW BAT-LOAD
in ft cfs volt
Ccp-Rev Ccp-Rev Ccp-Rev Ccp-Rev
(US/Central)
04/03 00:00 0.00 3.30 643 12.60
04/03 01:00 0.00 3.30 643 12.54
04/03 02:00 0.00 3.30 643 12.54
04/03 03:00 0.00 3.29 639 12.54
04/03 04:00 0.00 3.30 643 12.54
04/03 05:00 0.00 3.31 647 12.48
04/03 06:00 0.00 3.28 635 12.48
04/03 07:00 0.00 3.27 630 12.48
04/03 08:00 0.00 3.29 639 12.54
04/03 09:00 0.00 3.27 630 12.77
04/03 10:00 0.00 3.28 635 13.30
04/03 11:00 0.00 3.27 630 14.30
04/03 12:00 0.00 3.28 635 13.83
04/03 13:00 0.00 3.24 618 13.65
04/03 14:00 0.00 3.25 622 13.59
04/03 15:00 0.00 3.24 618 13.53
04/03 16:00 0.00 3.24 618 13.42
04/03 17:00 0.00 3.22 610 12.77
04/03 18:00 0.00 3.24 618 12.71
04/03 19:00 0.00 3.26 626 12.71
04/03 20:00 0.00 3.25 622 12.65
04/03 21:00 0.00 3.25 622 12.65
04/03 22:00 0.00 3.25 622 12.60
04/03 23:00 0.00 3.24 618 12.60